createdAt,value
2022-10-19T00:02:48.654Z,16.88
2022-10-19T00:07:51.033Z,16.84
2022-10-19T00:12:53.443Z,16.92
2022-10-19T00:17:55.906Z,16.67
2022-10-19T00:22:58.267Z,16.64
2022-10-19T00:28:00.828Z,16.94
2022-10-19T00:33:04.596Z,17.15
2022-10-19T00:38:07.041Z,17.10
2022-10-19T00:43:18.166Z,17.20
2022-10-19T00:48:23.506Z,17.24
2022-10-19T00:53:27.082Z,16.91
2022-10-19T00:58:30.023Z,17.00
2022-10-19T01:03:33.271Z,16.79
2022-10-19T01:08:35.661Z,16.93
2022-10-19T01:13:41.052Z,17.10
2022-10-19T01:18:47.092Z,17.02
2022-10-19T01:23:51.421Z,17.05
2022-10-19T01:28:56.878Z,16.82
2022-10-19T01:34:05.548Z,16.85
2022-10-19T01:39:12.874Z,16.83
2022-10-19T01:44:19.007Z,16.76
2022-10-19T01:49:41.401Z,16.72
2022-10-19T01:54:47.306Z,16.56
2022-10-19T01:59:50.240Z,16.72
2022-10-19T02:04:53.537Z,16.96
2022-10-19T02:09:56.338Z,16.79
2022-10-19T02:15:01.392Z,17.00
2022-10-19T02:20:03.968Z,16.77
2022-10-19T02:25:06.788Z,16.77
2022-10-19T02:30:10.325Z,16.79
2022-10-19T02:35:13.759Z,16.81
2022-10-19T02:40:16.355Z,16.57
2022-10-19T02:45:22.842Z,16.69
2022-10-19T02:50:25.535Z,16.49
2022-10-19T02:55:28.701Z,16.45
2022-10-19T03:00:31.169Z,16.52
2022-10-19T03:05:33.537Z,16.54
2022-10-19T03:10:35.903Z,16.52
2022-10-19T03:15:38.375Z,16.57
2022-10-19T03:20:40.820Z,16.65
2022-10-19T03:25:43.199Z,16.76
2022-10-19T03:30:45.591Z,16.61
2022-10-19T03:35:48.055Z,16.81
2022-10-19T03:40:50.403Z,16.83
2022-10-19T03:45:52.766Z,16.86
2022-10-19T03:50:58.120Z,16.85
2022-10-19T03:56:03.842Z,17.05
2022-10-19T04:01:08.014Z,17.12
2022-10-19T04:06:14.857Z,16.83
2022-10-19T04:11:21.720Z,16.90
2022-10-19T04:16:25.102Z,16.58
2022-10-19T04:21:29.108Z,16.60
2022-10-19T04:26:31.715Z,16.67
2022-10-19T04:31:34.228Z,16.72
2022-10-19T04:36:36.872Z,16.56
2022-10-19T04:41:39.386Z,16.77
2022-10-19T04:46:41.820Z,16.69
2022-10-19T04:51:44.298Z,16.64
2022-10-19T04:56:46.648Z,17.02
2022-10-19T05:01:49.049Z,17.29
2022-10-19T05:06:52.182Z,17.21
2022-10-19T05:11:54.725Z,15.65
2022-10-19T05:16:57.166Z,16.20
2022-10-19T05:21:59.608Z,16.56
2022-10-19T05:27:02.008Z,16.64
2022-10-19T05:32:04.630Z,16.63
2022-10-19T05:37:07.021Z,16.69
2022-10-19T05:42:09.427Z,16.38
2022-10-19T05:54:14.334Z,16.49
2022-10-19T05:59:18.770Z,16.61
2022-10-19T06:04:21.195Z,16.63
2022-10-19T06:09:23.695Z,16.72
2022-10-19T06:14:26.089Z,16.75
2022-10-19T06:19:29.669Z,16.66
2022-10-19T06:24:32.909Z,16.72
2022-10-19T06:29:36.050Z,16.80
2022-10-19T06:34:39.119Z,16.95
2022-10-19T06:39:41.533Z,16.97
2022-10-19T06:44:44.076Z,17.04
2022-10-19T06:49:46.960Z,17.08
2022-10-19T06:54:50.537Z,17.11
2022-10-19T06:59:53.785Z,17.16
2022-10-19T07:04:56.651Z,17.22
2022-10-19T07:09:59.104Z,15.80
2022-10-19T07:15:01.492Z,16.49
2022-10-19T07:20:04.187Z,16.86
2022-10-19T07:31:29.318Z,16.82
2022-10-19T07:36:35.851Z,15.96
2022-10-19T07:41:38.602Z,15.87
2022-10-19T07:46:41.274Z,15.10
2022-10-19T07:51:46.748Z,14.96
2022-10-19T07:56:49.205Z,15.01
2022-10-19T08:01:53.528Z,14.51
2022-10-19T08:06:56.082Z,14.01
2022-10-19T08:11:58.983Z,14.29
2022-10-19T08:17:02.861Z,14.74
2022-10-19T08:22:05.569Z,13.65
2022-10-19T08:27:08.062Z,13.80
2022-10-19T08:32:10.571Z,13.58
2022-10-19T08:37:25.822Z,13.20
2022-10-19T08:42:47.765Z,13.30
2022-10-19T08:47:53.145Z,13.76
2022-10-19T08:52:58.465Z,13.28
2022-10-19T08:58:03.788Z,12.61
2022-10-19T09:03:09.063Z,13.14
2022-10-19T09:08:16.834Z,13.55
2022-10-19T09:13:22.814Z,12.27
2022-10-19T09:18:27.907Z,13.21
2022-10-19T09:23:37.103Z,13.51
2022-10-19T09:29:00.142Z,12.25
2022-10-19T09:34:08.810Z,11.56
2022-10-19T09:39:12.243Z,12.99
2022-10-19T09:44:16.142Z,12.33
2022-10-19T09:49:20.874Z,11.98
2022-10-19T09:54:26.587Z,11.70
2022-10-19T09:59:31.668Z,13.34
2022-10-19T10:04:36.401Z,12.64
2022-10-19T10:09:41.406Z,11.62
2022-10-19T10:14:44.683Z,11.17
2022-10-19T10:19:50.014Z,12.75
2022-10-19T10:24:54.329Z,12.41
2022-10-19T10:35:01.946Z,13.27
2022-10-19T10:40:06.404Z,13.25
2022-10-19T10:45:16.537Z,12.58
2022-10-19T10:50:22.795Z,13.87
2022-10-19T10:55:26.621Z,14.83
2022-10-19T11:00:29.509Z,13.22
2022-10-19T11:05:33.799Z,14.39
2022-10-19T11:10:46.484Z,14.29
2022-10-19T11:15:51.857Z,12.57
2022-10-19T11:20:59.936Z,13.93
2022-10-19T11:26:11.693Z,12.86
2022-10-19T11:31:20.494Z,11.27
2022-10-19T11:36:25.910Z,12.27
2022-10-19T11:41:29.431Z,11.31
2022-10-19T11:46:34.783Z,12.33
2022-10-19T11:51:37.162Z,13.64
2022-10-19T11:57:01.786Z,12.58
2022-10-19T12:02:12.052Z,12.00
2022-10-19T12:07:17.402Z,13.49
2022-10-19T12:12:22.713Z,13.24
2022-10-19T12:17:30.976Z,12.43
2022-10-19T12:22:34.189Z,13.73
2022-10-19T12:27:38.744Z,12.90
2022-10-19T12:32:50.800Z,12.74
2022-10-19T12:38:05.445Z,12.86
2022-10-19T12:43:12.365Z,12.44
2022-10-19T12:48:18.813Z,12.60
2022-10-19T12:53:24.273Z,10.89
2022-10-19T12:58:35.982Z,11.55
2022-10-19T13:03:41.178Z,11.18
2022-10-19T13:08:47.561Z,11.02
2022-10-19T13:13:52.073Z,11.48
2022-10-19T13:18:57.410Z,10.70
2022-10-19T13:24:19.431Z,12.00
2022-10-19T13:29:24.687Z,10.97
2022-10-19T13:34:28.099Z,12.63
2022-10-19T13:39:35.812Z,11.48
2022-10-19T13:44:45.420Z,11.82
2022-10-19T13:49:49.988Z,11.77
2022-10-19T13:54:55.356Z,11.05
2022-10-19T13:59:59.950Z,11.45
2022-10-19T14:05:05.287Z,10.37
2022-10-19T14:10:14.165Z,12.08
2022-10-19T14:15:18.535Z,11.70
2022-10-19T14:20:23.853Z,11.49
2022-10-19T14:25:27.660Z,11.11
2022-10-19T14:30:32.710Z,10.81
2022-10-19T14:35:39.466Z,10.21
2022-10-19T14:40:42.163Z,12.06
2022-10-19T14:45:44.587Z,12.00
2022-10-19T14:50:49.242Z,10.51
2022-10-19T14:55:54.980Z,11.07
2022-10-19T15:00:57.386Z,11.90
2022-10-19T15:06:01.219Z,11.04
2022-10-19T15:11:05.074Z,11.96
2022-10-19T15:16:26.823Z,11.42
2022-10-19T15:21:31.465Z,12.83
2022-10-19T15:26:36.225Z,11.50
2022-10-19T15:31:41.005Z,12.39
2022-10-19T15:36:53.694Z,12.20
2022-10-19T15:41:56.125Z,12.24
2022-10-19T15:47:01.727Z,13.12
2022-10-19T15:52:13.823Z,11.89
2022-10-19T15:57:19.250Z,12.77
2022-10-19T16:02:21.942Z,11.75
2022-10-19T16:07:26.221Z,13.02
2022-10-19T16:12:28.910Z,13.08
2022-10-19T16:17:32.325Z,11.51
2022-10-19T16:22:35.064Z,12.78
2022-10-19T16:27:37.874Z,12.46
2022-10-19T16:37:42.887Z,12.87
2022-10-19T16:42:45.330Z,12.16
2022-10-19T16:47:49.581Z,11.51
2022-10-19T16:52:54.972Z,13.17
2022-10-19T16:57:57.441Z,12.48
2022-10-19T17:02:59.842Z,11.68
2022-10-19T17:08:02.210Z,13.23
2022-10-19T17:13:04.609Z,12.67
2022-10-19T17:18:07.119Z,11.61
2022-10-19T17:23:09.582Z,13.24
2022-10-19T17:28:12.011Z,13.03
2022-10-19T17:33:14.679Z,11.65
2022-10-19T17:38:17.155Z,13.30
2022-10-19T17:43:19.603Z,13.42
2022-10-19T17:48:22.019Z,11.53
2022-10-19T17:53:24.663Z,12.70
2022-10-19T17:58:27.731Z,13.69
2022-10-19T18:03:31.513Z,11.91
2022-10-19T18:08:35.774Z,12.04
2022-10-19T18:13:38.815Z,13.40
2022-10-19T18:18:42.457Z,11.77
2022-10-19T18:23:45.276Z,11.96
2022-10-19T18:28:48.579Z,13.39
2022-10-19T18:33:53.925Z,12.57
2022-10-19T18:39:00.202Z,11.65
2022-10-19T18:44:05.022Z,13.27
2022-10-19T18:49:10.423Z,12.29
2022-10-19T18:54:12.877Z,12.18
2022-10-19T18:59:15.503Z,13.55
2022-10-19T19:04:18.314Z,12.24
2022-10-19T19:09:21.359Z,12.20
2022-10-19T19:14:26.043Z,13.22
2022-10-19T19:19:29.842Z,11.57
2022-10-19T19:24:32.806Z,12.34
2022-10-19T19:29:35.194Z,13.04
2022-10-19T19:34:37.833Z,11.08
2022-10-19T19:39:40.738Z,11.67
2022-10-19T19:44:43.112Z,12.97
2022-10-19T19:49:45.491Z,11.44
2022-10-19T19:54:48.421Z,12.56
2022-10-19T19:59:50.869Z,11.83
2022-10-19T20:04:53.274Z,11.31
2022-10-19T20:09:56.644Z,12.66
2022-10-19T20:14:59.023Z,11.20
2022-10-19T20:20:01.400Z,11.70
2022-10-19T20:25:04.314Z,13.15
2022-10-19T20:30:07.382Z,12.25
2022-10-19T20:35:09.807Z,11.50
2022-10-19T20:40:12.250Z,13.20
2022-10-19T20:45:14.957Z,12.25
2022-10-19T20:50:20.602Z,11.78
2022-10-19T20:55:24.467Z,13.14
2022-10-19T21:00:26.841Z,12.05
2022-10-19T21:05:29.293Z,12.01
2022-10-19T21:10:31.713Z,13.32
2022-10-19T21:15:34.094Z,11.98
2022-10-19T21:20:36.761Z,11.90
2022-10-19T21:25:39.170Z,13.28
2022-10-19T21:30:41.811Z,12.05
2022-10-19T21:35:44.209Z,10.99
2022-10-19T21:40:46.752Z,12.72
2022-10-19T21:45:49.167Z,12.42
2022-10-19T21:50:51.788Z,11.59
2022-10-19T21:55:56.507Z,13.01
2022-10-19T22:01:01.900Z,12.39
2022-10-19T22:06:04.349Z,10.87
2022-10-19T22:11:07.614Z,12.49
2022-10-19T22:16:12.775Z,13.32
2022-10-19T22:21:16.998Z,11.62
2022-10-19T22:26:21.709Z,11.94
2022-10-19T22:31:24.861Z,12.98
2022-10-19T22:36:27.302Z,11.41
2022-10-19T22:41:29.762Z,12.54
2022-10-19T22:46:32.483Z,12.82
2022-10-19T22:51:35.404Z,11.09
2022-10-19T22:56:38.122Z,12.46
2022-10-19T23:01:40.632Z,13.23
2022-10-19T23:06:43.235Z,11.35
2022-10-19T23:11:45.721Z,11.11
2022-10-19T23:16:48.131Z,12.95
2022-10-19T23:21:50.569Z,12.82
2022-10-19T23:26:53.558Z,11.50
2022-10-19T23:31:56.003Z,13.00
2022-10-19T23:36:58.482Z,12.88
2022-10-19T23:42:00.882Z,10.86
2022-10-19T23:47:03.355Z,12.03
2022-10-19T23:52:05.911Z,13.16
2022-10-19T23:57:08.351Z,12.49
